createdAt,value
2023-02-28T00:01:49.643Z,3.85
2023-02-28T00:05:02.166Z,4.30
2023-02-28T00:08:05.886Z,3.25
2023-02-28T00:11:12.365Z,3.60
2023-02-28T00:14:15.599Z,4.05
2023-02-28T00:17:22.087Z,3.88
2023-02-28T00:20:26.119Z,3.60
2023-02-28T00:23:29.797Z,3.15
2023-02-28T00:26:33.019Z,3.33
2023-02-28T00:29:36.670Z,3.80
2023-02-28T00:32:40.629Z,3.58
2023-02-28T00:35:44.606Z,3.75
2023-02-28T00:38:47.823Z,3.58
2023-02-28T00:41:54.932Z,3.67
2023-02-28T00:44:58.151Z,3.78
2023-02-28T00:48:01.451Z,2.83
2023-02-28T00:51:05.269Z,3.27
2023-02-28T00:54:08.410Z,3.00
2023-02-28T00:57:11.721Z,3.25
2023-02-28T01:00:15.616Z,3.15
2023-02-28T01:03:21.236Z,2.92
2023-02-28T01:06:24.760Z,3.10
2023-02-28T01:09:28.154Z,3.13
2023-02-28T01:12:31.657Z,3.13
2023-02-28T01:15:34.852Z,3.17
2023-02-28T01:19:02.966Z,2.88
2023-02-28T01:22:07.434Z,3.20
2023-02-28T01:25:11.715Z,3.13
2023-02-28T01:28:15.033Z,3.08
2023-02-28T01:31:19.344Z,2.85
2023-02-28T01:34:22.602Z,2.53
2023-02-28T01:37:25.817Z,3.58
2023-02-28T01:40:29.268Z,3.20
2023-02-28T01:43:53.624Z,2.90
2023-02-28T01:46:56.916Z,2.85
2023-02-28T01:50:02.017Z,2.80
2023-02-28T01:53:11.686Z,3.53
2023-02-28T01:56:21.571Z,3.10
2023-02-28T01:59:54.497Z,2.78
2023-02-28T02:03:07.650Z,3.13
2023-02-28T02:06:12.709Z,2.85
2023-02-28T02:09:16.216Z,3.33
2023-02-28T02:12:49.013Z,3.00
2023-02-28T02:16:14.202Z,3.10
2023-02-28T02:19:42.808Z,3.42
2023-02-28T02:23:13.700Z,4.00
2023-02-28T02:26:19.964Z,2.90
2023-02-28T02:29:35.343Z,2.88
2023-02-28T02:32:50.451Z,3.17
2023-02-28T02:36:14.234Z,3.60
2023-02-28T02:39:39.577Z,3.72
2023-02-28T02:42:59.898Z,3.75
2023-02-28T02:46:38.292Z,2.85
2023-02-28T02:49:51.977Z,2.83
2023-02-28T02:53:01.128Z,3.67
2023-02-28T02:56:08.159Z,3.55
2023-02-28T02:59:14.893Z,3.17
2023-02-28T03:02:24.290Z,3.50
2023-02-28T03:05:49.069Z,3.72
2023-02-28T03:08:52.650Z,3.60
2023-02-28T03:11:57.907Z,3.60
2023-02-28T03:15:18.928Z,3.60
2023-02-28T03:18:53.113Z,3.28
2023-02-28T03:22:28.022Z,4.27
2023-02-28T03:25:37.016Z,3.92
2023-02-28T03:29:06.463Z,3.75
2023-02-28T03:32:45.147Z,4.20
2023-02-28T03:35:58.279Z,3.78
2023-02-28T03:39:08.813Z,4.07
2023-02-28T03:42:22.922Z,3.53
2023-02-28T03:45:31.024Z,4.90
2023-02-28T03:48:41.359Z,4.65
2023-02-28T03:51:47.146Z,4.55
2023-02-28T03:54:55.114Z,4.23
2023-02-28T03:58:13.133Z,3.85
2023-02-28T04:01:42.451Z,4.00
2023-02-28T04:04:49.792Z,3.73
2023-02-28T04:07:53.790Z,4.30
2023-02-28T04:11:07.019Z,4.43
2023-02-28T04:14:11.978Z,4.45
2023-02-28T04:17:15.215Z,3.90
2023-02-28T04:20:18.892Z,3.50
2023-02-28T04:23:22.214Z,4.15
2023-02-28T04:26:25.541Z,4.80
2023-02-28T04:29:31.431Z,4.22
2023-02-28T04:32:34.878Z,3.97
2023-02-28T04:35:38.144Z,4.03
2023-02-28T04:38:41.434Z,4.57
2023-02-28T04:41:45.519Z,4.63
2023-02-28T04:44:48.766Z,4.70
2023-02-28T04:47:52.010Z,4.35
2023-02-28T04:50:55.771Z,4.40
2023-02-28T04:53:59.119Z,4.55
2023-02-28T04:57:02.756Z,4.43
2023-02-28T05:00:12.531Z,4.38
2023-02-28T05:03:16.619Z,4.53
2023-02-28T05:06:21.389Z,4.00
2023-02-28T05:09:24.820Z,4.50
2023-02-28T05:12:28.132Z,4.07
2023-02-28T05:15:32.094Z,4.68
2023-02-28T05:18:35.983Z,4.22
2023-02-28T05:21:51.360Z,4.00
2023-02-28T05:24:55.038Z,5.40
2023-02-28T05:27:58.266Z,4.80
2023-02-28T05:31:02.083Z,4.57
2023-02-28T05:34:05.487Z,4.28
2023-02-28T05:37:13.860Z,4.17
2023-02-28T05:40:17.811Z,4.78
2023-02-28T05:43:21.183Z,4.72
2023-02-28T05:46:25.298Z,4.80
2023-02-28T05:49:28.554Z,4.32
2023-02-28T05:52:31.848Z,4.55
2023-02-28T05:55:37.018Z,5.22
2023-02-28T05:58:40.189Z,5.00
2023-02-28T06:01:51.498Z,5.32
2023-02-28T06:04:54.999Z,4.55
2023-02-28T06:07:58.181Z,6.13
2023-02-28T06:11:04.930Z,5.65
2023-02-28T06:14:08.884Z,5.68
2023-02-28T06:17:12.092Z,5.30
2023-02-28T06:20:15.493Z,5.03
2023-02-28T06:23:19.107Z,4.75
2023-02-28T06:26:22.456Z,4.85
2023-02-28T06:29:25.946Z,4.63
2023-02-28T06:32:29.576Z,4.80
2023-02-28T06:35:33.046Z,4.40
2023-02-28T06:38:37.199Z,4.97
2023-02-28T06:41:54.314Z,4.75
2023-02-28T06:44:58.760Z,5.70
2023-02-28T06:48:02.271Z,5.32
2023-02-28T06:51:15.176Z,5.05
2023-02-28T06:54:18.423Z,5.03
2023-02-28T06:57:21.786Z,5.65
2023-02-28T07:00:26.626Z,5.50
2023-02-28T07:03:29.988Z,5.60
2023-02-28T07:06:33.721Z,5.70
2023-02-28T07:09:37.223Z,5.20
2023-02-28T07:12:40.600Z,5.40
2023-02-28T07:15:44.590Z,5.70
2023-02-28T07:18:53.382Z,5.80
2023-02-28T07:21:56.730Z,6.25
2023-02-28T07:25:00.011Z,6.15
2023-02-28T07:28:03.321Z,7.28
2023-02-28T07:31:08.449Z,6.43
2023-02-28T07:34:11.764Z,5.68
2023-02-28T07:37:15.632Z,6.80
2023-02-28T07:40:19.462Z,6.20
2023-02-28T07:43:22.979Z,5.43
2023-02-28T07:46:30.574Z,6.90
2023-02-28T07:49:34.074Z,6.20
2023-02-28T07:52:39.117Z,6.22
2023-02-28T07:55:42.445Z,6.10
2023-02-28T07:58:45.762Z,6.07
2023-02-28T08:01:51.407Z,5.53
2023-02-28T08:04:54.639Z,6.50
2023-02-28T08:07:58.124Z,5.65
2023-02-28T08:11:03.716Z,6.47
2023-02-28T08:14:07.083Z,6.22
2023-02-28T08:17:11.502Z,5.38
2023-02-28T08:20:14.916Z,6.38
2023-02-28T08:23:18.429Z,6.35
2023-02-28T08:26:22.294Z,6.28
2023-02-28T08:29:25.951Z,6.45
2023-02-28T08:32:30.554Z,5.70
2023-02-28T08:35:36.310Z,6.53
2023-02-28T08:38:40.229Z,6.55
2023-02-28T08:41:45.151Z,6.93
2023-02-28T08:44:48.674Z,6.47
2023-02-28T08:47:53.714Z,5.82
2023-02-28T08:51:07.805Z,6.30
2023-02-28T08:54:17.109Z,6.75
2023-02-28T08:57:22.938Z,7.32
2023-02-28T09:00:27.929Z,7.05
2023-02-28T09:03:31.254Z,6.87
2023-02-28T09:06:34.588Z,6.97
2023-02-28T09:09:38.651Z,6.35
2023-02-28T09:12:42.078Z,6.13
2023-02-28T09:15:48.638Z,6.38
2023-02-28T09:18:55.083Z,6.57
2023-02-28T09:21:59.141Z,6.43
2023-02-28T09:25:02.737Z,6.60
2023-02-28T09:28:06.367Z,7.18
2023-02-28T09:31:24.263Z,6.40
2023-02-28T09:34:30.942Z,6.87
2023-02-28T09:41:04.449Z,6.75
2023-02-28T09:44:30.377Z,7.97
2023-02-28T09:47:47.823Z,7.13
2023-02-28T09:51:16.454Z,6.95
2023-02-28T09:54:24.586Z,7.70
2023-02-28T09:57:52.139Z,7.47
2023-02-28T10:01:04.614Z,7.40
2023-02-28T10:04:35.539Z,7.25
2023-02-28T10:07:47.394Z,6.20
2023-02-28T10:10:59.406Z,7.10
2023-02-28T10:14:17.315Z,7.50
2023-02-28T10:17:28.057Z,6.70
2023-02-28T10:20:38.431Z,7.57
2023-02-28T10:23:43.071Z,7.68
2023-02-28T10:26:51.526Z,8.10
2023-02-28T10:29:57.975Z,7.47
2023-02-28T10:33:01.621Z,7.95
2023-02-28T10:36:07.957Z,7.60
2023-02-28T10:40:01.645Z,7.30
2023-02-28T10:43:19.324Z,8.07
2023-02-28T10:46:27.962Z,7.38
2023-02-28T10:49:47.787Z,7.83
2023-02-28T10:52:55.329Z,8.25
2023-02-28T10:56:07.621Z,8.40
2023-02-28T10:59:31.069Z,7.85
2023-02-28T11:02:39.429Z,7.25
2023-02-28T11:05:44.882Z,9.18
2023-02-28T11:08:55.856Z,7.90
2023-02-28T11:12:02.944Z,9.00
2023-02-28T11:15:15.727Z,8.45
2023-02-28T11:18:42.056Z,8.32
2023-02-28T11:21:56.131Z,8.93
2023-02-28T11:25:03.132Z,8.20
2023-02-28T11:28:23.983Z,8.90
2023-02-28T11:31:30.984Z,9.15
2023-02-28T11:34:35.571Z,8.77
2023-02-28T11:37:40.201Z,8.45
2023-02-28T11:40:55.357Z,9.05
2023-02-28T11:44:22.576Z,8.87
2023-02-28T11:47:31.748Z,9.02
2023-02-28T11:50:43.081Z,8.40
2023-02-28T11:53:56.409Z,9.37
2023-02-28T11:57:17.233Z,9.45
2023-02-28T12:01:02.493Z,8.73
2023-02-28T12:04:18.035Z,8.18
2023-02-28T12:07:44.429Z,8.60
2023-02-28T12:11:18.964Z,8.18
2023-02-28T12:14:45.608Z,9.23
2023-02-28T12:18:16.602Z,9.27
2023-02-28T12:22:18.304Z,9.07
2023-02-28T12:26:00.833Z,8.98
2023-02-28T12:29:21.439Z,8.70
2023-02-28T12:32:40.433Z,8.77
2023-02-28T12:35:49.918Z,9.45
2023-02-28T12:39:01.325Z,9.18
2023-02-28T12:42:20.327Z,8.50
2023-02-28T12:45:52.813Z,8.38
2023-02-28T12:49:00.048Z,8.45
2023-02-28T12:52:05.271Z,8.33
2023-02-28T12:55:20.652Z,9.00
2023-02-28T12:58:29.905Z,8.52
2023-02-28T13:02:09.729Z,8.83
2023-02-28T13:05:42.672Z,9.15
2023-02-28T13:09:09.700Z,7.63
2023-02-28T13:12:17.679Z,8.50
2023-02-28T13:15:29.862Z,8.75
2023-02-28T13:18:46.429Z,8.80
2023-02-28T13:21:51.214Z,9.52
2023-02-28T13:24:59.195Z,8.47
2023-02-28T13:28:05.086Z,9.00
2023-02-28T13:31:08.593Z,8.27
2023-02-28T13:34:17.121Z,9.63
2023-02-28T13:37:23.040Z,11.18
2023-02-28T13:40:38.133Z,10.25
2023-02-28T13:44:06.432Z,10.77
2023-02-28T13:47:23.287Z,10.13
2023-02-28T13:50:26.567Z,10.25
2023-02-28T13:53:48.307Z,10.27
2023-02-28T13:57:05.552Z,9.43
2023-02-28T14:00:36.785Z,10.52
2023-02-28T14:03:59.078Z,9.32
2023-02-28T14:07:03.403Z,9.67
2023-02-28T14:10:09.699Z,9.75
2023-02-28T14:13:33.606Z,9.85
2023-02-28T14:16:44.944Z,9.93
2023-02-28T14:19:50.989Z,10.40
2023-02-28T14:23:02.615Z,10.00
2023-02-28T14:26:19.463Z,10.30
2023-02-28T14:29:46.076Z,9.53
2023-02-28T14:33:13.217Z,9.75
2023-02-28T14:36:39.070Z,10.60
2023-02-28T14:39:44.895Z,9.73
2023-02-28T14:42:57.402Z,10.18
2023-02-28T14:46:04.284Z,9.63
2023-02-28T14:49:13.400Z,10.45
2023-02-28T14:52:21.770Z,10.70
2023-02-28T14:55:31.825Z,10.95
2023-02-28T14:58:35.706Z,10.45
2023-02-28T15:01:38.985Z,10.20
2023-02-28T15:04:53.064Z,10.50
2023-02-28T15:08:17.012Z,10.15
2023-02-28T15:11:23.270Z,10.50
2023-02-28T15:14:29.244Z,9.93
2023-02-28T15:17:33.386Z,10.90
2023-02-28T15:20:39.833Z,9.93
2023-02-28T15:23:45.968Z,11.02
2023-02-28T15:26:58.042Z,9.20
2023-02-28T15:30:07.507Z,9.90
2023-02-28T15:33:24.435Z,10.60
2023-02-28T15:36:32.994Z,9.93
2023-02-28T15:39:45.355Z,10.23
2023-02-28T15:43:04.889Z,9.93
2023-02-28T15:46:14.701Z,11.18
2023-02-28T15:49:23.503Z,10.73
2023-02-28T15:52:32.871Z,11.13
2023-02-28T15:55:38.056Z,10.77
2023-02-28T15:58:43.686Z,10.60
2023-02-28T16:01:47.184Z,11.27
2023-02-28T16:05:07.468Z,10.67
2023-02-28T16:08:16.299Z,10.65
2023-02-28T16:11:22.422Z,10.38
2023-02-28T16:14:31.740Z,10.67
2023-02-28T16:17:38.566Z,10.90
2023-02-28T16:20:42.668Z,10.63
2023-02-28T16:23:46.226Z,11.80
2023-02-28T16:26:52.598Z,10.52
2023-02-28T16:29:55.846Z,11.00
2023-02-28T16:32:59.363Z,10.68
2023-02-28T16:36:03.364Z,11.67
2023-02-28T16:39:06.680Z,10.50
2023-02-28T16:42:23.334Z,9.82
2023-02-28T16:45:28.724Z,9.93
2023-02-28T16:48:32.155Z,10.32
2023-02-28T16:51:36.053Z,10.98
2023-02-28T16:54:40.946Z,9.98
2023-02-28T16:57:45.791Z,9.82
2023-02-28T17:00:50.250Z,10.40
2023-02-28T17:03:53.873Z,11.35
2023-02-28T17:06:57.347Z,10.77
2023-02-28T17:10:09.461Z,10.32
2023-02-28T17:13:15.332Z,9.23
2023-02-28T17:16:30.404Z,10.10
2023-02-28T17:19:35.050Z,10.70
2023-02-28T17:22:38.321Z,10.73
2023-02-28T17:25:41.520Z,10.70
2023-02-28T17:28:45.399Z,10.05
2023-02-28T17:31:49.437Z,10.57
2023-02-28T17:34:53.153Z,10.20
2023-02-28T17:37:56.627Z,11.20
2023-02-28T17:41:00.551Z,10.27
2023-02-28T17:44:04.280Z,10.38
2023-02-28T17:47:07.768Z,10.47
2023-02-28T17:50:22.781Z,10.88
2023-02-28T17:53:28.118Z,9.77
2023-02-28T17:56:32.113Z,10.88
2023-02-28T17:59:36.165Z,11.30
2023-02-28T18:02:40.085Z,11.27
2023-02-28T18:05:43.431Z,10.50
2023-02-28T18:08:47.385Z,11.10
2023-02-28T18:11:55.885Z,10.35
2023-02-28T18:14:59.637Z,10.85
2023-02-28T18:18:03.384Z,11.63
2023-02-28T18:21:09.197Z,10.30
2023-02-28T18:24:14.107Z,11.13
2023-02-28T18:27:17.703Z,10.43
2023-02-28T18:30:22.070Z,10.80
2023-02-28T18:33:25.583Z,10.80
2023-02-28T18:36:29.644Z,11.48
2023-02-28T18:39:33.799Z,10.87
2023-02-28T18:42:39.226Z,11.48
2023-02-28T18:45:42.600Z,10.88
2023-02-28T18:48:46.578Z,11.30
2023-02-28T18:51:50.125Z,11.18
2023-02-28T18:54:53.915Z,11.77
2023-02-28T18:57:57.526Z,11.25
2023-02-28T19:01:05.118Z,10.82
2023-02-28T19:04:12.086Z,11.02
2023-02-28T19:07:15.593Z,11.10
2023-02-28T19:10:19.727Z,10.97
2023-02-28T19:13:23.683Z,11.40
2023-02-28T19:16:30.934Z,10.77
2023-02-28T19:19:34.773Z,11.23
2023-02-28T19:22:38.326Z,11.98
2023-02-28T19:25:42.944Z,11.65
2023-02-28T19:28:46.686Z,11.68
2023-02-28T19:31:50.452Z,12.02
2023-02-28T19:34:54.442Z,11.82
2023-02-28T19:38:00.546Z,12.05
2023-02-28T19:41:07.533Z,12.03
2023-02-28T19:44:11.148Z,12.77
2023-02-28T19:47:15.424Z,12.25
2023-02-28T19:50:19.238Z,12.80
2023-02-28T19:53:22.696Z,13.25
2023-02-28T19:56:26.296Z,13.05
2023-02-28T19:59:39.215Z,12.95
2023-02-28T20:02:44.166Z,12.60
2023-02-28T20:05:47.725Z,13.02
2023-02-28T20:08:54.242Z,13.75
2023-02-28T20:11:59.571Z,13.33
2023-02-28T20:15:03.220Z,13.15
2023-02-28T20:18:07.909Z,12.80
2023-02-28T20:21:13.756Z,13.30
2023-02-28T20:24:18.550Z,13.45
2023-02-28T20:27:21.820Z,13.02
2023-02-28T20:30:25.485Z,14.30
2023-02-28T20:33:29.377Z,13.52
2023-02-28T20:36:33.156Z,13.75
2023-02-28T20:39:36.939Z,14.10
2023-02-28T20:42:40.347Z,13.10
2023-02-28T20:45:52.061Z,13.55
2023-02-28T20:48:55.998Z,13.93
2023-02-28T20:51:59.520Z,13.60
2023-02-28T20:55:03.215Z,11.98
2023-02-28T20:58:07.090Z,10.95
2023-02-28T21:01:25.965Z,11.73
2023-02-28T21:04:30.320Z,10.57
2023-02-28T21:07:34.223Z,11.57
2023-02-28T21:10:37.728Z,11.65
2023-02-28T21:13:42.473Z,11.33
2023-02-28T21:16:46.920Z,12.02
2023-02-28T21:19:51.559Z,12.65
2023-02-28T21:22:54.846Z,11.77
2023-02-28T21:26:05.320Z,12.05
2023-02-28T21:29:08.736Z,11.00
2023-02-28T21:32:12.071Z,11.18
2023-02-28T21:35:15.488Z,10.85
2023-02-28T21:38:19.456Z,12.20
2023-02-28T21:41:24.197Z,11.13
2023-02-28T21:44:28.185Z,10.77
2023-02-28T21:47:31.604Z,11.30
2023-02-28T21:50:34.980Z,11.23
2023-02-28T21:53:39.902Z,11.13
2023-02-28T21:56:43.162Z,11.00
2023-02-28T21:59:46.625Z,10.30
2023-02-28T22:02:49.916Z,10.95
2023-02-28T22:05:53.181Z,11.13
2023-02-28T22:09:05.999Z,11.75
2023-02-28T22:12:12.196Z,10.75
2023-02-28T22:15:15.378Z,10.83
2023-02-28T22:18:18.654Z,10.00
2023-02-28T22:21:23.309Z,10.27
2023-02-28T22:24:26.577Z,10.90
2023-02-28T22:27:29.756Z,11.13
2023-02-28T22:30:33.554Z,10.48
2023-02-28T22:33:37.036Z,10.32
2023-02-28T22:36:42.604Z,9.55
2023-02-28T22:39:46.028Z,9.95
2023-02-28T22:42:52.124Z,10.85
2023-02-28T22:45:55.365Z,10.27
2023-02-28T22:49:00.339Z,9.57
2023-02-28T22:52:03.583Z,10.70
2023-02-28T22:55:08.103Z,9.83
2023-02-28T22:58:11.503Z,10.38
2023-02-28T23:01:17.076Z,9.98
2023-02-28T23:04:20.487Z,10.52
2023-02-28T23:07:24.198Z,8.85
2023-02-28T23:10:27.471Z,9.90
2023-02-28T23:13:30.672Z,10.43
2023-02-28T23:16:42.836Z,10.17
2023-02-28T23:19:46.044Z,10.25
2023-02-28T23:22:52.391Z,9.75
2023-02-28T23:25:55.661Z,10.47
2023-02-28T23:29:00.415Z,9.55
2023-02-28T23:32:04.377Z,17.98
2023-02-28T23:35:10.097Z,10.90
2023-02-28T23:38:13.351Z,9.55
2023-02-28T23:41:18.465Z,10.13
2023-02-28T23:44:21.765Z,9.82
2023-02-28T23:47:25.194Z,9.60
2023-02-28T23:50:29.475Z,10.05
2023-02-28T23:53:33.856Z,10.00
2023-02-28T23:56:37.226Z,9.97
2023-02-28T23:59:41.000Z,10.57
